Terminal Aerodrome Forecast
Issued by NWS Northern Indiana

Home | Current Version | Previous Version | Text Only | Print | Product List | Glossary On
Versions: 1 2 3 4 5 6 7 8 9 10 11 12 13 14 15
242
FTUS43 KIWX 031735
TAFFWA
TAF
KFWA 031735Z 0318/0418 34008KT P6SM BKN060
     FM040500 22009KT P6SM BKN100
     FM041300 22012KT 5SM SHRA BR OVC020
     FM041700 26014G24KT 3SM -RA BR OVC008=

USA.gov is the U.S. government's official web portal to all federal, state and local government web resources and services.